Time;durP1;ratioP1;P1;durP2;ratioP2;P2;SDS_P1;SDS_P2;PMS_P1;PMS_P2;Temp;Humidity;BMP_temperature;BMP_pressure;BME280_temperature;BME280_humidity;BME280_pressure;Samples;Min_cycle;Max_cycle;Signal;HPM_P1;HPM_P2
2023/08/10 04:30:08;;;;;;;0.00;0.00;;;20.20;78.10;;;;;;5976735;23;20193;-76
2023/08/10 04:32:35;;;;;;;0.00;0.00;;;20.30;78.10;;;;;;4900526;29;20051;-77
2023/08/10 04:35:02;;;;;;;0.00;0.00;;;20.30;78.00;;;;;;4899176;29;20029;-77
2023/08/10 04:37:27;;;;;;;0.00;0.00;;;20.30;77.70;;;;;;4884447;29;20057;-77
2023/08/10 04:39:53;;;;;;;0.00;0.00;;;20.30;77.70;;;;;;4872781;29;20081;-77
2023/08/10 04:42:18;;;;;;;0.00;0.00;;;20.40;77.50;;;;;;4903562;29;20380;-77
2023/08/10 04:44:44;;;;;;;0.00;0.00;;;20.30;77.40;;;;;;4902810;29;20028;-76
2023/08/10 04:47:10;;;;;;;0.00;0.00;;;20.40;77.40;;;;;;4902695;29;20029;-77
2023/08/10 04:49:35;;;;;;;0.00;0.00;;;20.50;77.20;;;;;;4902929;29;20025;-77
2023/08/10 04:52:01;;;;;;;0.00;0.00;;;20.40;77.10;;;;;;4902981;29;20029;-77
2023/08/10 04:54:27;;;;;;;0.00;0.00;;;20.50;77.00;;;;;;4901724;29;20075;-77
2023/08/10 04:56:52;;;;;;;0.00;0.00;;;20.50;76.90;;;;;;4901447;29;20033;-77
2023/08/10 04:59:18;;;;;;;0.00;0.00;;;20.50;76.80;;;;;;4902808;29;20511;-77
2023/08/10 05:01:44;;;;;;;0.00;0.00;;;20.50;76.90;;;;;;4902843;29;20036;-77
2023/08/10 05:04:09;;;;;;;0.00;0.00;;;20.40;77.00;;;;;;4903278;29;20080;-77
2023/08/10 05:06:36;;;;;;;0.00;0.00;;;20.40;77.10;;;;;;4890384;29;20369;-77
2023/08/10 05:09:04;;;;;;;0.00;0.00;;;20.40;77.50;;;;;;4903134;29;20108;-77
2023/08/10 05:11:30;;;;;;;0.00;0.00;;;20.30;77.50;;;;;;4886198;29;20029;-77
2023/08/10 05:13:56;;;;;;;0.00;0.00;;;20.30;77.90;;;;;;4886307;29;20036;-77
2023/08/10 05:16:22;;;;;;;0.00;0.00;;;20.30;78.00;;;;;;4902833;29;20043;-77
2023/08/10 05:18:48;;;;;;;0.00;0.00;;;20.30;77.90;;;;;;4886043;29;20029;-77
2023/08/10 05:21:14;;;;;;;0.00;0.00;;;20.30;77.80;;;;;;4902938;29;20036;-76
2023/08/10 05:23:40;;;;;;;0.00;0.00;;;20.30;77.80;;;;;;4902850;29;20024;-77
2023/08/10 05:26:07;;;;;;;0.00;0.00;;;20.30;77.80;;;;;;4902241;29;20033;-77
2023/08/10 05:28:33;;;;;;;0.00;0.00;;;20.20;78.00;;;;;;4902856;29;20020;-77
2023/08/10 05:30:59;;;;;;;0.00;0.00;;;20.20;78.00;;;;;;4902799;29;20392;-77
2023/08/10 05:33:24;;;;;;;0.00;0.00;;;20.10;77.70;;;;;;4902672;29;20056;-77
2023/08/10 05:35:50;;;;;;;0.00;0.00;;;20.20;77.50;;;;;;4902803;29;20391;-77
2023/08/10 05:38:15;;;;;;;0.00;0.00;;;20.30;77.10;;;;;;4902597;29;20491;-77
2023/08/10 05:40:41;;;;;;;0.00;0.00;;;20.30;76.80;;;;;;4902849;29;20036;-77
2023/08/10 05:43:07;;;;;;;0.00;0.00;;;20.30;76.40;;;;;;4885851;29;20020;-77
2023/08/10 05:45:32;;;;;;;0.00;0.00;;;20.30;76.40;;;;;;4902521;29;20449;-77
2023/08/10 05:47:58;;;;;;;0.00;0.00;;;20.40;76.20;;;;;;4902580;29;20076;-77
2023/08/10 05:50:24;;;;;;;0.10;0.00;;;20.40;76.00;;;;;;4902635;29;20037;-77
2023/08/10 05:52:49;;;;;;;0.00;0.00;;;20.40;75.80;;;;;;4902704;29;20032;-77
2023/08/10 05:55:15;;;;;;;0.00;0.00;;;20.40;75.80;;;;;;4885498;29;20119;-77
2023/08/10 05:57:41;;;;;;;0.00;0.00;;;20.40;75.90;;;;;;4902653;29;20448;-77
2023/08/10 06:00:09;;;;;;;0.00;0.00;;;20.40;76.00;;;;;;4885241;29;20496;-77
2023/08/10 06:02:35;;;;;;;0.00;0.00;;;20.30;76.20;;;;;;4885539;29;20384;-77
2023/08/10 06:05:01;;;;;;;0.00;0.00;;;20.30;76.50;;;;;;4902248;29;20021;-77
2023/08/10 06:07:26;;;;;;;0.00;0.00;;;20.30;76.90;;;;;;4902229;29;20035;-77
2023/08/10 06:09:52;;;;;;;0.00;0.00;;;20.20;76.80;;;;;;4885465;29;20491;-77
2023/08/10 06:12:18;;;;;;;0.00;0.00;;;20.30;77.00;;;;;;4902518;29;20088;-77
2023/08/10 06:14:44;;;;;;;0.00;0.00;;;20.30;77.00;;;;;;4885457;29;20036;-77
2023/08/10 06:17:10;;;;;;;0.00;0.00;;;20.30;76.80;;;;;;4902415;29;20036;-77
2023/08/10 06:19:35;;;;;;;0.00;0.00;;;20.20;76.80;;;;;;4902354;29;20037;-77
2023/08/10 06:22:01;;;;;;;0.03;0.03;;;20.30;76.90;;;;;;4884998;29;20483;-77
2023/08/10 06:24:27;;;;;;;0.00;0.00;;;20.30;76.90;;;;;;4902123;29;20476;-77
2023/08/10 06:26:52;;;;;;;0.03;0.00;;;20.40;76.80;;;;;;4901693;29;20612;-77
2023/08/10 06:29:21;;;;;;;0.00;0.00;;;20.40;76.90;;;;;;4902328;29;20392;-77
2023/08/10 06:31:47;;;;;;;0.10;0.00;;;20.50;76.80;;;;;;4901970;29;20052;-77
2023/08/10 06:34:12;;;;;;;0.00;0.00;;;20.50;76.60;;;;;;4902169;29;20515;-77
2023/08/10 06:36:38;;;;;;;0.00;0.00;;;20.60;76.50;;;;;;4902085;29;20029;-77
2023/08/10 06:39:04;;;;;;;0.00;0.00;;;20.50;76.40;;;;;;4904942;29;20033;-78
2023/08/10 06:41:30;;;;;;;0.00;0.00;;;20.60;76.50;;;;;;4905663;29;20025;-77
2023/08/10 06:43:56;;;;;;;0.00;0.00;;;20.70;76.50;;;;;;4905670;29;20028;-77
2023/08/10 06:46:22;;;;;;;0.00;0.00;;;20.80;76.30;;;;;;4888898;29;20164;-77
2023/08/10 06:48:47;;;;;;;0.00;0.00;;;20.80;75.70;;;;;;4905658;29;20028;-77
2023/08/10 06:51:13;;;;;;;0.00;0.00;;;20.80;76.20;;;;;;4905196;29;20020;-77
2023/08/10 06:53:39;;;;;;;0.00;0.00;;;20.80;76.10;;;;;;4905586;29;20040;-77
2023/08/10 06:56:05;;;;;;;0.00;0.00;;;20.80;75.80;;;;;;4905799;29;20028;-77
2023/08/10 06:58:32;;;;;;;0.10;0.10;;;20.90;75.40;;;;;;4905643;29;20043;-77
2023/08/10 07:00:58;;;;;;;0.00;0.00;;;20.90;75.30;;;;;;4903774;29;20033;-77
2023/08/10 07:03:24;;;;;;;0.00;0.00;;;21.00;75.40;;;;;;4905323;29;20108;-78
2023/08/10 07:05:50;;;;;;;0.00;0.00;;;21.20;75.50;;;;;;4898785;29;20056;-77
2023/08/10 07:08:15;;;;;;;0.00;0.00;;;21.30;74.90;;;;;;4905336;29;20036;-77
2023/08/10 07:10:41;;;;;;;0.00;0.00;;;21.30;74.80;;;;;;4905197;29;20028;-77
2023/08/10 07:13:07;;;;;;;0.00;0.00;;;21.50;74.80;;;;;;4888370;29;20036;-77
2023/08/10 07:15:33;;;;;;;0.10;0.10;;;21.60;74.30;;;;;;4905471;29;20036;-77
2023/08/10 07:17:59;;;;;;;0.10;0.10;;;21.80;74.10;;;;;;4888344;29;20032;-77
2023/08/10 07:20:25;;;;;;;0.00;0.00;;;22.20;73.60;;;;;;4887912;29;20032;-78
2023/08/10 07:22:50;;;;;;;0.00;0.00;;;22.90;71.40;;;;;;4904896;29;20522;-78
2023/08/10 07:25:17;;;;;;;0.00;0.00;;;23.10;70.30;;;;;;4905153;29;20159;-78
2023/08/10 07:27:44;;;;;;;0.00;0.00;;;23.80;68.60;;;;;;4904957;29;20033;-78
2023/08/10 07:30:10;;;;;;;0.00;0.00;;;23.80;66.70;;;;;;4904662;29;21032;-77
2023/08/10 07:32:36;;;;;;;0.00;0.00;;;23.30;68.40;;;;;;4905375;29;20044;-78
2023/08/10 07:35:03;;;;;;;0.00;0.00;;;24.30;66.70;;;;;;4887718;29;20111;-78
2023/08/10 07:37:30;;;;;;;0.10;0.10;;;24.50;65.00;;;;;;4904741;29;20029;-79
2023/08/10 07:39:56;;;;;;;0.00;0.00;;;25.20;64.30;;;;;;4904645;29;20391;-78
2023/08/10 07:42:22;;;;;;;0.10;0.10;;;25.30;63.60;;;;;;4904662;29;20024;-78
2023/08/10 07:44:48;;;;;;;0.10;0.10;;;25.30;62.10;;;;;;4887719;29;20112;-78
2023/08/10 07:47:13;;;;;;;0.00;0.00;;;26.10;61.70;;;;;;4887679;29;20035;-78
2023/08/10 07:49:42;;;;;;;0.25;0.25;;;26.20;59.70;;;;;;4887005;29;20029;-79
2023/08/10 07:52:08;;;;;;;0.20;0.20;;;26.80;59.20;;;;;;4904526;29;20025;-78
2023/08/10 07:54:33;;;;;;;0.30;0.30;;;27.30;57.80;;;;;;4904554;29;20422;-78
2023/08/10 07:56:59;;;;;;;0.20;0.20;;;27.00;57.70;;;;;;4887242;29;20029;-78
2023/08/10 07:59:24;;;;;;;0.10;0.10;;;27.20;58.00;;;;;;4887416;29;20032;-78
2023/08/10 08:01:50;;;;;;;0.10;0.10;;;27.30;57.50;;;;;;4904344;29;20040;-78
2023/08/10 08:04:16;;;;;;;0.00;0.00;;;27.60;56.30;;;;;;4904562;29;20456;-78
2023/08/10 08:06:41;;;;;;;0.00;0.00;;;28.40;54.90;;;;;;4887072;29;20025;-78
2023/08/10 08:09:07;;;;;;;0.10;0.10;;;29.10;52.30;;;;;;4904187;29;20025;-78
2023/08/10 08:11:34;;;;;;;0.10;0.10;;;30.20;49.80;;;;;;4904361;29;20084;-78
2023/08/10 08:14:01;;;;;;;0.10;0.10;;;31.20;45.90;;;;;;4887399;29;20119;-79
2023/08/10 08:16:26;;;;;;;0.20;0.20;;;31.80;43.00;;;;;;4903961;29;20025;-79
2023/08/10 08:18:55;;;;;;;0.40;0.40;;;32.60;42.00;;;;;;4904007;29;20488;-79
2023/08/10 08:21:24;;;;;;;0.40;0.40;;;33.90;38.90;;;;;;4904028;29;20021;-79
2023/08/10 08:23:51;;;;;;;0.50;0.50;;;34.50;38.30;;;;;;4887124;29;20021;-79
2023/08/10 08:26:18;;;;;;;0.50;0.50;;;34.90;36.80;;;;;;4903237;29;20153;-79
2023/08/10 08:28:44;;;;;;;0.52;0.52;;;35.40;36.70;;;;;;4886910;29;20028;-79
2023/08/10 08:31:11;;;;;;;0.50;0.50;;;36.10;36.50;;;;;;4903667;29;20055;-79
2023/08/10 08:33:38;;;;;;;0.82;0.82;;;36.40;34.80;;;;;;4903811;29;20028;-79
2023/08/10 08:36:06;;;;;;;0.60;0.60;;;36.20;33.90;;;;;;4902951;29;20052;-79
2023/08/10 08:38:32;;;;;;;0.60;0.60;;;36.30;34.60;;;;;;4903612;29;20032;-79
2023/08/10 08:41:03;;;;;;;0.60;0.60;;;36.10;35.90;;;;;;4903393;29;20484;-79
2023/08/10 08:43:29;;;;;;;;;;;36.10;35.90;;;;;;4903762;29;20021;-79
2023/08/10 08:45:57;;;;;;;0.50;0.50;;;36.00;35.30;;;;;;4903444;29;20006;-79
2023/08/10 08:48:23;;;;;;;0.50;0.50;;;35.50;36.30;;;;;;4903569;29;20025;-79
2023/08/10 08:50:50;;;;;;;0.20;0.20;;;34.80;36.30;;;;;;4903471;29;20037;-79
2023/08/10 08:53:15;;;;;;;0.00;0.00;;;33.90;38.40;;;;;;4903358;29;20496;-79
2023/08/10 08:55:41;;;;;;;0.20;0.20;;;32.60;40.90;;;;;;4903361;29;20041;-78
2023/08/10 08:58:07;;;;;;;0.00;0.00;;;31.60;42.20;;;;;;4903275;29;20029;-78
2023/08/10 09:00:34;;;;;;;0.20;0.20;;;31.00;44.00;;;;;;4901605;29;20067;-78
2023/08/10 09:03:00;;;;;;;0.75;0.75;;;30.90;44.00;;;;;;4901593;29;20029;-78
2023/08/10 09:05:28;;;;;;;0.50;0.50;;;30.80;43.00;;;;;;4899672;29;20040;-78
2023/08/10 09:07:54;;;;;;;0.30;0.30;;;30.80;43.60;;;;;;4903052;29;20017;-79
2023/08/10 09:10:21;;;;;;;0.63;0.63;;;30.90;44.10;;;;;;4903084;29;20635;-78
2023/08/10 09:12:47;;;;;;;0.20;0.20;;;31.00;43.00;;;;;;4903194;29;20036;-78
2023/08/10 09:15:15;;;;;;;0.20;0.20;;;31.20;45.10;;;;;;4903247;29;20096;-78
2023/08/10 09:17:46;;;;;;;0.10;0.10;;;31.30;44.90;;;;;;4902941;29;20441;-78
2023/08/10 09:20:24;;;;;;;0.10;0.10;;;31.80;44.10;;;;;;4886116;29;20387;-78
2023/08/10 09:22:52;;;;;;;0.10;0.10;;;32.10;42.70;;;;;;4902828;29;20025;-78
2023/08/10 09:25:18;;;;;;;0.20;0.20;;;32.50;41.80;;;;;;4886030;29;20080;-78
2023/08/10 09:27:47;;;;;;;0.40;0.40;;;32.70;40.90;;;;;;4902972;29;20503;-78
2023/08/10 09:30:12;;;;;;;0.50;0.50;;;33.00;41.10;;;;;;4885675;29;20035;-78
2023/08/10 09:32:40;;;;;;;1.50;1.50;;;33.90;39.70;;;;;;4902695;29;20036;-78
2023/08/10 09:35:11;;;;;;;0.50;0.50;;;34.40;39.10;;;;;;4885636;29;20025;-79
2023/08/10 09:37:36;;;;;;;0.70;0.70;;;34.80;36.90;;;;;;4902708;29;20029;-78
2023/08/10 09:40:05;;;;;;;0.47;0.47;;;35.30;37.60;;;;;;4885765;29;20079;-79
2023/08/10 09:42:32;;;;;;;0.50;0.50;;;35.30;36.30;;;;;;4885705;29;20028;-78
2023/08/10 09:44:59;;;;;;;0.40;0.40;;;35.10;37.20;;;;;;4902530;29;20024;-79
2023/08/10 09:47:24;;;;;;;0.30;0.30;;;35.00;37.60;;;;;;4902528;29;20039;-78
2023/08/10 09:49:57;;;;;;;0.30;0.30;;;34.70;38.30;;;;;;4870649;29;20033;-79
2023/08/10 09:52:24;;;;;;;0.60;0.60;;;34.60;38.80;;;;;;4885554;29;20065;-78
2023/08/10 09:54:51;;;;;;;0.55;0.55;;;34.70;39.30;;;;;;4870068;29;20028;-79
2023/08/10 09:57:18;;;;;;;0.70;0.70;;;34.80;39.00;;;;;;4902525;29;20068;-78
2023/08/10 09:59:45;;;;;;;0.70;0.70;;;35.30;39.10;;;;;;4902262;29;20036;-79
2023/08/10 10:02:11;;;;;;;5.05;4.85;;;35.30;36.90;;;;;;4902514;29;20088;-79
2023/08/10 10:04:41;;;;;;;0.70;0.70;;;35.10;36.90;;;;;;4902414;29;20028;-79
2023/08/10 10:07:08;;;;;;;0.80;0.80;;;35.30;36.50;;;;;;4885037;29;20391;-79
2023/08/10 10:09:37;;;;;;;0.90;0.90;;;35.80;37.30;;;;;;4885370;29;20052;-79
2023/08/10 10:12:07;;;;;;;0.88;0.88;;;36.00;36.60;;;;;;4902577;29;20037;-79
2023/08/10 10:14:34;;;;;;;0.90;0.90;;;36.20;37.40;;;;;;4889243;29;20032;-79
2023/08/10 10:17:01;;;;;;;0.90;0.90;;;36.20;37.10;;;;;;4903476;29;20276;-79
2023/08/10 10:19:27;;;;;;;0.80;0.80;;;36.20;37.00;;;;;;4898417;29;20024;-79
2023/08/10 10:21:53;;;;;;;0.70;0.70;;;36.10;37.70;;;;;;4889170;29;20120;-79
2023/08/10 10:24:19;;;;;;;0.60;0.60;;;36.00;37.10;;;;;;4889176;29;20048;-79
2023/08/10 10:27:08;;;;;;;0.40;0.40;;;35.70;37.50;;;;;;4906089;29;20029;-79
2023/08/10 10:29:40;;;;;;;0.30;0.30;;;35.70;36.90;;;;;;4905962;29;20033;-79
2023/08/10 10:32:14;;;;;;;0.10;0.10;;;35.60;38.30;;;;;;4905085;29;20131;-79
2023/08/10 10:34:41;;;;;;;0.13;0.13;;;35.10;38.60;;;;;;4888500;29;20033;-79
2023/08/10 10:37:08;;;;;;;0.00;0.00;;;34.80;39.60;;;;;;4905521;29;20484;-79
2023/08/10 10:39:34;;;;;;;0.10;0.10;;;34.20;40.40;;;;;;4905783;29;20040;-78
2023/08/10 10:42:00;;;;;;;0.08;0.08;;;33.50;40.30;;;;;;4905701;29;20017;-78
2023/08/10 10:45:08;;;;;;;0.00;0.00;;;32.80;40.80;;;;;;4894424;29;20091;-78
2023/08/10 10:47:34;;;;;;;0.00;0.00;;;32.20;44.40;;;;;;4905687;29;20027;-78
2023/08/10 10:50:00;;;;;;;0.10;0.10;;;31.80;45.30;;;;;;4905602;29;20107;-79
2023/08/10 10:52:36;;;;;;;0.00;0.00;;;31.60;45.40;;;;;;4905485;29;20063;-79
2023/08/10 10:55:03;;;;;;;0.00;0.00;;;31.30;47.30;;;;;;4888665;29;20086;-78
2023/08/10 10:57:34;;;;;;;0.00;0.00;;;31.30;46.10;;;;;;4888478;29;20096;-79
2023/08/10 10:59:59;;;;;;;0.00;0.00;;;31.10;47.50;;;;;;4905425;29;20035;-78
2023/08/10 11:02:26;;;;;;;0.00;0.00;;;30.80;47.80;;;;;;4905369;29;20467;-78
2023/08/10 11:04:52;;;;;;;0.00;0.00;;;30.70;46.50;;;;;;4905325;29;20029;-79
2023/08/10 11:07:18;;;;;;;0.00;0.00;;;30.70;47.50;;;;;;4905117;29;20029;-78
2023/08/10 11:09:43;;;;;;;0.00;0.00;;;30.60;48.40;;;;;;4888445;29;20503;-78
2023/08/10 11:12:09;;;;;;;0.00;0.00;;;30.50;48.10;;;;;;4905361;29;20029;-78
2023/08/10 11:14:36;;;;;;;0.00;0.00;;;30.30;48.10;;;;;;4888270;29;20068;-78
2023/08/10 11:17:02;;;;;;;0.00;0.00;;;30.30;48.80;;;;;;4905160;29;20037;-78
2023/08/10 11:19:33;;;;;;;0.00;0.00;;;30.40;49.40;;;;;;4905191;29;20060;-78
2023/08/10 11:21:58;;;;;;;0.10;0.10;;;30.40;49.60;;;;;;4904801;29;20084;-78
2023/08/10 11:24:27;;;;;;;0.00;0.00;;;30.40;49.30;;;;;;4904071;29;20033;-79
2023/08/10 11:26:53;;;;;;;0.00;0.00;;;30.40;50.50;;;;;;4905092;29;20037;-79
2023/08/10 11:29:19;;;;;;;0.10;0.10;;;30.50;50.00;;;;;;4904844;29;20053;-78
2023/08/10 11:31:46;;;;;;;0.00;0.00;;;30.60;50.40;;;;;;4904798;29;20156;-78
2023/08/10 11:34:23;;;;;;;0.00;0.00;;;30.60;49.60;;;;;;4904962;29;20396;-78
2023/08/10 11:36:51;;;;;;;0.13;0.00;;;30.50;49.60;;;;;;4904720;29;20063;-78
2023/08/10 11:39:17;;;;;;;0.00;0.00;;;30.60;49.40;;;;;;4904739;29;20028;-78
2023/08/10 11:41:45;;;;;;;0.00;0.00;;;30.70;51.60;;;;;;4904758;29;20033;-78
2023/08/10 11:44:23;;;;;;;0.00;0.00;;;30.70;50.00;;;;;;4904651;29;20017;-79
2023/08/10 11:46:49;;;;;;;0.00;0.00;;;30.70;51.30;;;;;;4887685;29;20032;-79
2023/08/10 11:49:15;;;;;;;0.00;0.00;;;30.60;51.00;;;;;;4904625;29;20080;-79
2023/08/10 11:51:41;;;;;;;0.13;0.00;;;30.50;49.40;;;;;;4887434;29;20049;-78
2023/08/10 11:54:08;;;;;;;0.00;0.00;;;30.50;48.90;;;;;;4904604;29;20028;-78
2023/08/10 11:56:34;;;;;;;0.00;0.00;;;30.50;51.90;;;;;;4904555;29;20079;-78
2023/08/10 11:59:14;;;;;;;0.00;0.00;;;30.50;51.70;;;;;;4904600;29;20084;-78
2023/08/10 12:01:54;;;;;;;0.00;0.00;;;30.60;51.10;;;;;;4887291;29;20037;-78
2023/08/10 12:04:20;;;;;;;0.00;0.00;;;30.80;51.20;;;;;;4904532;29;20028;-78
2023/08/10 12:06:46;;;;;;;0.00;0.00;;;30.80;52.20;;;;;;4903943;29;20025;-78
2023/08/10 12:09:12;;;;;;;0.00;0.00;;;30.80;48.80;;;;;;4904150;29;20031;-78
2023/08/10 12:11:49;;;;;;;0.00;0.00;;;30.70;49.90;;;;;;4904274;29;20028;-78
2023/08/10 12:14:19;;;;;;;0.00;0.00;;;30.70;50.40;;;;;;4904197;29;20390;-78
2023/08/10 12:16:44;;;;;;;0.00;0.00;;;30.60;51.60;;;;;;4904218;29;20028;-78
2023/08/10 12:19:10;;;;;;;0.10;0.10;;;30.50;48.80;;;;;;4887047;29;20025;-78
2023/08/10 12:21:36;;;;;;;0.00;0.00;;;30.40;49.30;;;;;;4886731;29;20033;-78
2023/08/10 12:24:01;;;;;;;0.00;0.00;;;30.50;49.40;;;;;;4903833;29;20028;-78
2023/08/10 12:26:27;;;;;;;0.00;0.00;;;30.60;50.20;;;;;;4887009;29;20091;-78
2023/08/10 12:28:53;;;;;;;0.00;0.00;;;30.60;52.10;;;;;;4903741;29;20021;-78
2023/08/10 12:31:19;;;;;;;0.10;0.10;;;30.60;51.10;;;;;;4886693;29;20112;-78
2023/08/10 12:33:45;;;;;;;0.00;0.00;;;30.70;51.20;;;;;;4903251;29;20029;-78
2023/08/10 12:36:11;;;;;;;0.00;0.00;;;30.80;51.40;;;;;;4886778;29;20035;-78
2023/08/10 12:38:36;;;;;;;0.00;0.00;;;30.80;49.70;;;;;;4903609;29;20417;-78
2023/08/10 12:41:02;;;;;;;0.10;0.10;;;30.80;52.30;;;;;;4888725;29;20037;-78
2023/08/10 12:43:28;;;;;;;0.10;0.10;;;30.80;52.10;;;;;;4903569;29;20055;-78
2023/08/10 12:45:54;;;;;;;0.08;0.08;;;30.80;51.30;;;;;;4903637;29;20024;-78
2023/08/10 12:48:19;;;;;;;0.00;0.00;;;30.90;48.50;;;;;;4902235;29;20451;-79
2023/08/10 12:50:45;;;;;;;0.03;0.03;;;31.00;50.40;;;;;;4903407;29;20395;-79
2023/08/10 12:53:11;;;;;;;0.00;0.00;;;31.10;51.70;;;;;;4903667;29;20107;-78
2023/08/10 12:55:37;;;;;;;0.00;0.00;;;31.20;49.30;;;;;;4902053;29;20633;-78
2023/08/10 12:58:02;;;;;;;0.10;0.10;;;31.30;50.20;;;;;;4902006;29;20486;-78
2023/08/10 13:00:28;;;;;;;0.10;0.10;;;31.50;49.20;;;;;;4902919;29;20037;-78
2023/08/10 13:02:54;;;;;;;0.10;0.10;;;31.60;50.50;;;;;;4903374;29;20515;-78
2023/08/10 13:05:20;;;;;;;0.00;0.00;;;31.70;48.10;;;;;;4903079;29;20057;-78
2023/08/10 13:07:46;;;;;;;0.00;0.00;;;31.70;48.90;;;;;;4903318;29;20025;-78
2023/08/10 13:10:14;;;;;;;0.00;0.00;;;31.60;47.90;;;;;;4903062;29;20040;-79
2023/08/10 13:12:42;;;;;;;0.00;0.00;;;31.30;49.20;;;;;;4903384;29;20017;-78
2023/08/10 13:15:08;;;;;;;0.00;0.00;;;31.30;49.30;;;;;;4886306;29;20057;-78
2023/08/10 13:17:33;;;;;;;0.05;0.05;;;31.50;50.00;;;;;;4903210;29;20036;-78
2023/08/10 13:19:59;;;;;;;0.10;0.10;;;31.70;48.20;;;;;;4903002;29;20032;-78
2023/08/10 13:22:29;;;;;;;0.10;0.10;;;31.80;48.30;;;;;;4902895;29;20025;-78
2023/08/10 13:24:55;;;;;;;0.00;0.00;;;31.80;47.90;;;;;;4903112;29;20033;-78
2023/08/10 13:27:22;;;;;;;0.17;0.00;;;31.90;47.00;;;;;;4903015;29;20031;-78
2023/08/10 13:29:49;;;;;;;0.00;0.00;;;31.80;48.10;;;;;;4885931;29;20033;-78
2023/08/10 13:32:15;;;;;;;0.00;0.00;;;31.80;46.30;;;;;;4902967;29;20056;-78
2023/08/10 13:34:41;;;;;;;0.00;0.00;;;31.80;46.60;;;;;;4903108;29;20527;-78
2023/08/10 13:37:07;;;;;;;0.03;0.03;;;31.70;46.90;;;;;;4886067;29;20032;-78
2023/08/10 13:39:33;;;;;;;0.00;0.00;;;31.70;46.40;;;;;;4885831;29;20029;-79
2023/08/10 13:41:58;;;;;;;0.00;0.00;;;31.70;48.10;;;;;;4902771;29;20400;-78
2023/08/10 13:44:24;;;;;;;0.20;0.10;;;31.50;47.80;;;;;;4902644;29;20543;-78
2023/08/10 13:46:49;;;;;;;0.00;0.00;;;31.60;48.00;;;;;;4902604;29;20085;-78
2023/08/10 13:49:15;;;;;;;0.00;0.00;;;31.50;45.30;;;;;;4902548;29;20028;-78
2023/08/10 13:51:41;;;;;;;0.00;0.00;;;31.50;46.90;;;;;;4885911;29;20034;-78
2023/08/10 13:54:07;;;;;;;0.00;0.00;;;31.50;47.90;;;;;;4902886;29;20032;-78
2023/08/10 13:57:00;;;;;;;0.00;0.00;;;31.50;46.90;;;;;;4902748;29;20098;-78
2023/08/10 13:59:27;;;;;;;0.00;0.00;;;31.60;46.80;;;;;;4902345;29;20032;-78
2023/08/10 14:01:53;;;;;;;0.00;0.00;;;31.50;47.10;;;;;;4902421;29;20480;-78
2023/08/10 14:04:20;;;;;;;0.00;0.00;;;31.60;45.50;;;;;;4885607;29;20111;-78
2023/08/10 14:06:46;;;;;;;0.00;0.00;;;31.80;46.90;;;;;;4902273;29;20043;-78
2023/08/10 14:09:12;;;;;;;0.00;0.00;;;31.80;47.20;;;;;;4885586;29;20025;-78
2023/08/10 14:11:38;;;;;;;0.00;0.00;;;31.60;46.20;;;;;;4885527;29;20504;-78
2023/08/10 14:14:04;;;;;;;0.00;0.00;;;31.50;47.40;;;;;;4902362;29;20037;-78
2023/08/10 14:16:30;;;;;;;0.00;0.00;;;31.40;47.40;;;;;;4902694;29;20029;-78
2023/08/10 14:18:55;;;;;;;0.00;0.00;;;31.40;49.20;;;;;;4902627;29;20037;-78
2023/08/10 14:21:21;;;;;;;0.00;0.00;;;31.50;46.20;;;;;;4902335;29;20028;-78
2023/08/10 14:23:48;;;;;;;0.00;0.00;;;31.60;47.00;;;;;;4902342;29;20032;-78
2023/08/10 14:26:14;;;;;;;0.00;0.00;;;31.50;48.50;;;;;;4901839;29;20013;-78
2023/08/10 14:28:39;;;;;;;0.03;0.03;;;31.20;48.00;;;;;;4902542;29;20048;-78
2023/08/10 14:31:05;;;;;;;0.00;0.00;;;31.40;47.40;;;;;;4902279;29;20041;-78
2023/08/10 14:33:31;;;;;;;0.00;0.00;;;31.60;47.30;;;;;;4902251;29;20423;-79
2023/08/10 14:35:58;;;;;;;0.00;0.00;;;31.40;47.30;;;;;;4901718;29;20033;-79
2023/08/10 14:38:24;;;;;;;0.00;0.00;;;31.20;48.80;;;;;;4902228;29;20033;-78
2023/08/10 14:40:49;;;;;;;0.00;0.00;;;31.20;48.30;;;;;;4902171;29;20120;-78
2023/08/10 14:43:15;;;;;;;0.10;0.10;;;31.30;48.40;;;;;;4902520;29;20056;-79
2023/08/10 14:45:41;;;;;;;0.10;0.10;;;31.60;46.90;;;;;;4885179;29;20052;-78
2023/08/10 14:48:06;;;;;;;0.00;0.00;;;31.70;48.40;;;;;;4902064;29;21041;-78
2023/08/10 14:50:32;;;;;;;0.00;0.00;;;31.80;46.60;;;;;;4885084;29;20032;-78
2023/08/10 14:52:58;;;;;;;0.00;0.00;;;31.90;47.00;;;;;;4902357;29;20048;-78
2023/08/10 14:55:23;;;;;;;0.00;0.00;;;31.90;47.50;;;;;;4885290;29;20085;-78
2023/08/10 14:57:50;;;;;;;0.00;0.00;;;31.90;47.90;;;;;;4885333;29;20472;-78
2023/08/10 15:00:17;;;;;;;0.10;0.10;;;32.00;48.00;;;;;;4903647;29;20499;-78
2023/08/10 15:02:47;;;;;;;0.00;0.00;;;32.10;46.80;;;;;;4905679;29;20476;-77
2023/08/10 15:05:14;;;;;;;0.00;0.00;;;32.00;46.70;;;;;;4905410;29;20017;-77
2023/08/10 15:07:40;;;;;;;0.00;0.00;;;31.80;47.10;;;;;;4905585;29;20084;-77
2023/08/10 15:10:06;;;;;;;0.00;0.00;;;31.90;47.20;;;;;;4905391;29;20387;-78
2023/08/10 15:12:33;;;;;;;0.08;0.08;;;31.90;46.70;;;;;;4888615;29;20369;-78
2023/08/10 15:14:59;;;;;;;0.00;0.00;;;32.10;46.10;;;;;;4905614;29;20032;-78
2023/08/10 15:17:25;;;;;;;0.00;0.00;;;32.20;46.40;;;;;;4905343;29;20403;-78
2023/08/10 15:19:50;;;;;;;0.00;0.00;;;32.20;46.40;;;;;;4905504;29;20033;-78
2023/08/10 15:22:16;;;;;;;0.00;0.00;;;32.00;46.30;;;;;;4888082;29;20084;-78
2023/08/10 15:24:41;;;;;;;0.00;0.00;;;32.00;47.00;;;;;;4904989;29;20088;-77
2023/08/10 15:27:07;;;;;;;0.00;0.00;;;31.90;46.70;;;;;;4905228;29;20024;-78
2023/08/10 15:29:33;;;;;;;0.00;0.00;;;31.90;47.90;;;;;;4905117;29;20514;-78
2023/08/10 15:32:00;;;;;;;0.00;0.00;;;31.90;45.60;;;;;;4904861;29;20084;-78
2023/08/10 15:34:29;;;;;;;0.00;0.00;;;31.80;45.90;;;;;;4888257;29;20024;-78
2023/08/10 15:36:59;;;;;;;0.00;0.00;;;31.80;46.50;;;;;;4904722;29;20064;-78
2023/08/10 15:39:25;;;;;;;0.00;0.00;;;31.60;47.20;;;;;;4888026;29;20104;-78
2023/08/10 15:41:51;;;;;;;0.00;0.00;;;31.50;48.90;;;;;;4904703;29;20047;-78
2023/08/10 15:44:17;;;;;;;0.00;0.00;;;31.30;48.30;;;;;;4904993;29;20021;-78
2023/08/10 15:46:43;;;;;;;0.00;0.00;;;31.10;49.10;;;;;;4904929;29;20032;-78
2023/08/10 15:49:09;;;;;;;0.00;0.00;;;30.90;48.70;;;;;;4904626;29;20025;-79
2023/08/10 15:51:40;;;;;;;0.00;0.00;;;30.90;50.00;;;;;;4904357;29;20032;-78
2023/08/10 15:54:09;;;;;;;0.00;0.00;;;30.80;50.20;;;;;;4904742;29;20092;-78
2023/08/10 15:56:35;;;;;;;0.00;0.00;;;30.70;50.20;;;;;;4904677;29;20028;-78
2023/08/10 15:59:00;;;;;;;0.00;0.00;;;30.80;50.60;;;;;;4904548;29;20028;-77
2023/08/10 16:01:26;;;;;;;0.00;0.00;;;30.80;50.10;;;;;;4887238;29;20088;-78
2023/08/10 16:03:52;;;;;;;0.00;0.00;;;30.70;50.30;;;;;;4893729;29;20033;-78
2023/08/10 16:06:18;;;;;;;0.00;0.00;;;30.50;50.50;;;;;;4904368;29;20021;-78
2023/08/10 16:08:43;;;;;;;0.00;0.00;;;30.50;50.70;;;;;;4904278;29;20033;-78
2023/08/10 16:11:09;;;;;;;0.05;0.00;;;30.60;50.40;;;;;;4886732;29;20036;-78
2023/08/10 16:13:35;;;;;;;0.00;0.00;;;30.50;50.90;;;;;;4904554;29;20044;-78
2023/08/10 16:16:01;;;;;;;0.20;0.10;;;30.30;49.70;;;;;;4904161;29;20029;-77
2023/08/10 16:18:26;;;;;;;0.00;0.00;;;30.30;49.10;;;;;;4904184;29;20067;-78
2023/08/10 16:20:52;;;;;;;0.00;0.00;;;30.30;49.70;;;;;;4904091;29;20033;-77
2023/08/10 16:23:18;;;;;;;0.00;0.00;;;30.30;49.70;;;;;;4887118;29;20039;-78
2023/08/10 16:25:50;;;;;;;0.00;0.00;;;30.50;49.40;;;;;;4904111;29;20099;-78
2023/08/10 16:28:16;;;;;;;;;;;30.50;49.30;;;;;;4904172;29;20028;-78
2023/08/10 16:30:41;;;;;;;0.00;0.00;;;30.40;49.20;;;;;;4903500;29;19915;-78
2023/08/10 16:33:07;;;;;;;0.00;0.00;;;30.40;49.60;;;;;;4887191;29;20032;-78
2023/08/10 16:35:33;;;;;;;0.00;0.00;;;30.40;49.80;;;;;;4903411;29;20103;-78
2023/08/10 16:37:58;;;;;;;0.00;0.00;;;30.50;50.30;;;;;;4903690;29;20024;-78
2023/08/10 16:40:25;;;;;;;0.00;0.00;;;30.50;50.40;;;;;;4903100;29;20044;-78
2023/08/10 16:42:51;;;;;;;0.00;0.00;;;30.50;49.80;;;;;;4903915;29;20021;-78
2023/08/10 16:45:16;;;;;;;0.00;0.00;;;30.50;49.80;;;;;;4903715;29;20035;-78
2023/08/10 16:47:42;;;;;;;0.00;0.00;;;30.50;50.10;;;;;;4903922;29;20068;-78
2023/08/10 16:50:08;;;;;;;0.00;0.00;;;30.60;50.20;;;;;;4903063;29;20040;-78
2023/08/10 16:52:35;;;;;;;0.00;0.00;;;30.40;49.50;;;;;;4903552;29;20444;-78
2023/08/10 16:55:03;;;;;;;0.00;0.00;;;30.20;50.50;;;;;;4903190;29;20029;-78
2023/08/10 16:57:29;;;;;;;0.00;0.00;;;30.10;50.50;;;;;;4902169;29;20033;-79
2023/08/10 16:59:55;;;;;;;0.00;0.00;;;30.10;51.70;;;;;;4903375;29;20483;-79
2023/08/10 17:02:21;;;;;;;0.00;0.00;;;30.20;51.90;;;;;;4903469;29;20028;-78
2023/08/10 17:04:47;;;;;;;0.00;0.00;;;30.10;51.90;;;;;;4903319;29;20024;-78
2023/08/10 17:07:12;;;;;;;0.00;0.00;;;30.00;52.00;;;;;;4886604;29;20111;-77
2023/08/10 17:09:38;;;;;;;0.00;0.00;;;29.90;52.90;;;;;;4903237;29;20085;-78
2023/08/10 17:12:04;;;;;;;0.00;0.00;;;29.80;52.90;;;;;;4886425;29;20060;-77
2023/08/10 17:14:30;;;;;;;0.00;0.00;;;29.90;53.50;;;;;;4903209;29;20036;-78